Time;durP1;ratioP1;P1;durP2;ratioP2;P2;SDS_P1;SDS_P2;PMS_P1;PMS_P2;Temp;Humidity;BMP_temperature;BMP_pressure;BME280_temperature;BME280_humidity;BME280_pressure;Samples;Min_cycle;Max_cycle;Signal;HPM_P1;HPM_P2
2022/09/11 00:01:48;;;;;;;28.90;25.25;;;;;;;;;;5043452;28;20810;-80
2022/09/11 00:04:15;;;;;;;30.30;25.98;;;;;;;;;;5045445;28;20423;-80
2022/09/11 00:06:43;;;;;;;30.60;27.15;;;;;;;;;;5040608;28;20958;-80
2022/09/11 00:09:10;;;;;;;30.80;25.83;;;;;;;;;;5047434;28;20520;-81
2022/09/11 00:11:39;;;;;;;30.40;27.10;;;;;;;;;;5043493;28;20453;-81
2022/09/11 00:14:06;;;;;;;32.40;26.52;;;;;;;;;;5046297;28;20474;-80
2022/09/11 00:16:34;;;;;;;33.83;28.17;;;;;;;;;;5047128;28;20436;-81
2022/09/11 00:19:01;;;;;;;33.85;28.73;;;;;;;;;;5045469;28;20468;-80
2022/09/11 00:21:28;;;;;;;33.28;28.30;;;;;;;;;;5046267;28;20413;-80
2022/09/11 00:23:56;;;;;;;34.97;27.30;;;;;;;;;;5046090;28;20500;-81
2022/09/11 00:26:23;;;;;;;30.87;26.13;;;;;;;;;;5043536;28;20427;-80
2022/09/11 00:28:51;;;;;;;30.27;25.25;;;;;;;;;;5047635;28;20429;-80
2022/09/11 00:31:18;;;;;;;31.47;26.97;;;;;;;;;;5042466;28;20916;-80
2022/09/11 00:33:45;;;;;;;29.38;25.77;;;;;;;;;;5045064;28;20936;-80
2022/09/11 00:36:13;;;;;;;30.90;23.80;;;;;;;;;;5045848;28;20433;-81
2022/09/11 00:38:39;;;;;;;27.67;23.50;;;;;;;;;;5045373;28;20483;-81
2022/09/11 00:41:10;;;;;;;27.80;23.90;;;;;;;;;;5046035;28;20427;-81
2022/09/11 00:43:51;;;;;;;24.80;22.10;;;;;;;;;;5047103;28;20448;-82
2022/09/11 00:46:17;;;;;;;30.92;25.08;;;;;;;;;;5044564;28;20417;-81
2022/09/11 00:48:48;;;;;;;32.08;26.20;;;;;;;;;;5045891;28;20426;-83
2022/09/11 00:51:17;;;;;;;32.03;26.33;;;;;;;;;;5046914;28;20443;-81
2022/09/11 00:53:44;;;;;;;29.15;25.75;;;;;;;;;;5046646;28;20447;-80
2022/09/11 00:56:12;;;;;;;32.78;24.73;;;;;;;;;;5042912;28;20429;-81
2022/09/11 00:58:41;;;;;;;27.17;23.83;;;;;;;;;;5046136;28;20530;-81
2022/09/11 01:01:08;;;;;;;29.60;25.80;;;;;;;;;;5042500;28;20439;-81
2022/09/11 01:03:34;;;;;;;25.58;22.80;;;;;;;;;;5044716;28;20436;-81
2022/09/11 01:06:01;;;;;;;25.33;21.48;;;;;;;;;;5043981;28;21039;-80
2022/09/11 01:08:27;;;;;;;27.25;23.77;;;;;;;;;;5045677;28;20426;-80
2022/09/11 01:11:02;;;;;;;30.83;25.88;;;;;;;;;;5044693;28;20481;-81
2022/09/11 01:13:33;;;;;;;28.20;24.13;;;;;;;;;;5047120;28;20424;-80
2022/09/11 01:16:05;;;;;;;28.93;24.77;;;;;;;;;;5045271;28;20444;-80
2022/09/11 01:18:34;;;;;;;30.83;23.98;;;;;;;;;;5043243;28;20431;-81
2022/09/11 01:21:07;;;;;;;30.50;26.00;;;;;;;;;;5044669;28;20405;-81
2022/09/11 01:23:52;;;;;;;27.05;23.00;;;;;;;;;;5046287;28;20433;-81
2022/09/11 01:26:34;;;;;;;32.63;25.73;;;;;;;;;;5043874;28;20435;-81
2022/09/11 01:29:05;;;;;;;26.98;24.05;;;;;;;;;;5032041;28;20479;-82
2022/09/11 01:31:36;;;;;;;30.02;24.67;;;;;;;;;;5043444;28;21083;-81
2022/09/11 01:34:07;;;;;;;28.05;25.05;;;;;;;;;;5046405;28;20436;-82
2022/09/11 01:36:37;;;;;;;28.92;24.35;;;;;;;;;;5042834;28;20430;-81
2022/09/11 01:39:05;;;;;;;25.70;22.17;;;;;;;;;;5044859;28;20442;-81
2022/09/11 01:41:33;;;;;;;25.67;22.25;;;;;;;;;;5043482;28;20505;-81
2022/09/11 01:44:02;;;;;;;25.63;22.33;;;;;;;;;;5044864;28;20580;-82
2022/09/11 01:46:34;;;;;;;30.08;24.77;;;;;;;;;;5046708;28;20436;-81
2022/09/11 01:49:03;;;;;;;27.13;24.23;;;;;;;;;;5048361;28;20444;-81
2022/09/11 01:51:30;;;;;;;28.23;24.38;;;;;;;;;;5045837;28;20432;-81
2022/09/11 01:53:58;;;;;;;27.40;22.75;;;;;;;;;;5044664;28;20435;-81
2022/09/11 01:56:26;;;;;;;25.90;22.90;;;;;;;;;;5044116;28;20427;-80
2022/09/11 01:58:56;;;;;;;25.77;21.48;;;;;;;;;;5041483;28;20419;-81
2022/09/11 02:01:24;;;;;;;24.10;21.60;;;;;;;;;;5044083;28;20423;-81
2022/09/11 02:03:54;;;;;;;23.80;21.25;;;;;;;;;;5059070;28;20421;-80
2022/09/11 02:06:23;;;;;;;23.15;20.75;;;;;;;;;;5043786;28;20906;-80
2022/09/11 02:08:53;;;;;;;24.65;21.15;;;;;;;;;;5043935;28;20448;-81
2022/09/11 02:11:20;;;;;;;24.20;20.85;;;;;;;;;;5043633;28;20438;-80
2022/09/11 02:13:50;;;;;;;23.27;20.77;;;;;;;;;;5043263;28;20431;-81
2022/09/11 02:16:20;;;;;;;26.87;24.07;;;;;;;;;;5044952;28;20968;-81
2022/09/11 02:18:51;;;;;;;25.23;21.98;;;;;;;;;;5045808;28;20560;-80
2022/09/11 02:21:19;;;;;;;22.58;20.38;;;;;;;;;;5045635;28;20804;-80
2022/09/11 02:23:46;;;;;;;20.70;18.50;;;;;;;;;;5045408;28;20442;-80
2022/09/11 02:26:13;;;;;;;20.23;18.03;;;;;;;;;;5044547;28;20432;-81
2022/09/11 02:28:40;;;;;;;22.90;20.50;;;;;;;;;;5044352;28;20428;-81
2022/09/11 02:31:06;;;;;;;23.27;19.73;;;;;;;;;;5044245;28;20535;-81
2022/09/11 02:33:34;;;;;;;23.33;20.83;;;;;;;;;;5044401;28;20429;-82
2022/09/11 02:36:06;;;;;;;22.50;20.20;;;;;;;;;;5045413;28;20405;-81
2022/09/11 02:38:39;;;;;;;26.38;22.63;;;;;;;;;;5047737;28;20426;-82
2022/09/11 02:41:08;;;;;;;25.33;22.03;;;;;;;;;;5043920;28;20437;-81
2022/09/11 02:43:46;;;;;;;27.83;21.63;;;;;;;;;;5044845;28;20460;-81
2022/09/11 02:46:28;;;;;;;26.45;22.30;;;;;;;;;;5049255;28;20445;-80
2022/09/11 02:48:59;;;;;;;25.10;22.40;;;;;;;;;;5044126;28;20931;-80
2022/09/11 02:51:28;;;;;;;28.08;23.50;;;;;;;;;;5041499;28;20448;-80
2022/09/11 02:54:00;;;;;;;23.10;20.60;;;;;;;;;;5044098;28;20479;-82
2022/09/11 02:56:29;;;;;;;22.10;19.80;;;;;;;;;;5041918;28;20497;-82
2022/09/11 02:58:56;;;;;;;28.35;22.13;;;;;;;;;;5042746;28;20509;-80
2022/09/11 03:01:23;;;;;;;30.67;25.27;;;;;;;;;;5042340;28;20969;-80
2022/09/11 03:03:49;;;;;;;37.13;26.13;;;;;;;;;;5043054;28;20426;-82
2022/09/11 03:06:16;;;;;;;37.60;28.83;;;;;;;;;;5042174;28;20430;-80
2022/09/11 03:08:43;;;;;;;35.78;29.00;;;;;;;;;;5041804;28;20432;-82
2022/09/11 03:11:14;;;;;;;33.65;26.48;;;;;;;;;;5048783;28;20424;-80
2022/09/11 03:13:40;;;;;;;31.17;25.80;;;;;;;;;;5050717;28;20477;-79
2022/09/11 03:16:07;;;;;;;27.50;22.80;;;;;;;;;;5050677;28;20802;-81
2022/09/11 03:18:34;;;;;;;27.67;22.63;;;;;;;;;;5051454;28;20423;-81
2022/09/11 03:21:02;;;;;;;29.77;24.13;;;;;;;;;;5049755;28;20417;-79
2022/09/11 03:23:30;;;;;;;29.83;24.95;;;;;;;;;;5049404;28;20451;-81
2022/09/11 03:25:57;;;;;;;41.88;29.55;;;;;;;;;;5050611;28;20420;-82
2022/09/11 03:28:26;;;;;;;35.00;27.77;;;;;;;;;;5053860;28;20441;-80
2022/09/11 03:30:52;;;;;;;42.88;30.80;;;;;;;;;;5051117;28;20419;-81
2022/09/11 03:33:19;;;;;;;46.60;30.05;;;;;;;;;;5048125;28;20438;-81
2022/09/11 03:35:46;;;;;;;45.42;30.90;;;;;;;;;;5048961;28;20416;-81
2022/09/11 03:38:12;;;;;;;39.45;31.77;;;;;;;;;;5048634;28;20442;-82
2022/09/11 03:40:39;;;;;;;42.65;32.05;;;;;;;;;;5049876;28;20918;-81
2022/09/11 03:43:05;;;;;;;42.70;32.70;;;;;;;;;;5056599;28;20437;-80
2022/09/11 03:45:33;;;;;;;43.83;33.17;;;;;;;;;;5051990;28;20438;-81
2022/09/11 03:48:00;;;;;;;46.80;34.90;;;;;;;;;;5050743;28;20437;-81
2022/09/11 03:50:26;;;;;;;48.03;35.78;;;;;;;;;;5050781;28;20520;-83
2022/09/11 03:52:53;;;;;;;43.50;31.88;;;;;;;;;;5050462;28;20429;-80
2022/09/11 03:55:21;;;;;;;45.45;32.40;;;;;;;;;;5050953;28;20940;-80
2022/09/11 03:57:48;;;;;;;49.03;34.45;;;;;;;;;;5049019;28;20496;-80
2022/09/11 04:00:14;;;;;;;51.20;35.58;;;;;;;;;;5049549;28;20436;-80
2022/09/11 04:02:42;;;;;;;46.17;34.58;;;;;;;;;;5049039;28;20533;-83
2022/09/11 04:05:09;;;;;;;40.28;33.67;;;;;;;;;;5050552;28;20441;-82
2022/09/11 04:07:37;;;;;;;47.67;34.15;;;;;;;;;;5050312;28;20429;-81
2022/09/11 04:10:04;;;;;;;48.25;34.08;;;;;;;;;;5051004;28;20426;-82
2022/09/11 04:12:30;;;;;;;43.92;33.70;;;;;;;;;;5048528;28;20439;-80
2022/09/11 04:14:57;;;;;;;48.70;35.95;;;;;;;;;;5050937;28;20431;-82
2022/09/11 04:17:23;;;;;;;42.30;30.20;;;;;;;;;;5049246;28;20436;-80
2022/09/11 04:19:51;;;;;;;38.45;30.65;;;;;;;;;;5050989;28;20502;-82
2022/09/11 04:22:18;;;;;;;36.55;29.30;;;;;;;;;;5045694;28;20426;-81
2022/09/11 04:24:45;;;;;;;34.75;28.25;;;;;;;;;;5046244;28;20943;-80
2022/09/11 04:27:12;;;;;;;34.30;28.20;;;;;;;;;;5045630;28;20948;-81
2022/09/11 04:29:38;;;;;;;37.50;31.25;;;;;;;;;;5046490;28;20421;-81
2022/09/11 04:32:05;;;;;;;41.65;33.00;;;;;;;;;;5046907;28;20443;-82
2022/09/11 04:34:31;;;;;;;47.05;34.65;;;;;;;;;;5047666;28;20460;-81
2022/09/11 04:36:59;;;;;;;40.67;31.50;;;;;;;;;;5046936;28;20839;-81
2022/09/11 04:39:26;;;;;;;48.13;30.90;;;;;;;;;;5045459;28;20431;-80
2022/09/11 04:41:54;;;;;;;44.22;31.52;;;;;;;;;;5043811;28;20437;-80
2022/09/11 04:44:20;;;;;;;43.97;31.73;;;;;;;;;;5047494;28;20430;-80
2022/09/11 04:46:48;;;;;;;45.72;32.65;;;;;;;;;;5045001;28;20943;-80
2022/09/11 04:49:14;;;;;;;53.55;36.20;;;;;;;;;;5048022;28;20462;-81
2022/09/11 04:51:41;;;;;;;66.40;38.08;;;;;;;;;;5047362;28;20431;-80
2022/09/11 04:54:12;;;;;;;50.60;34.87;;;;;;;;;;5047775;28;20435;-80
2022/09/11 04:56:39;;;;;;;44.35;34.20;;;;;;;;;;5045403;28;20438;-80
2022/09/11 04:59:08;;;;;;;77.65;39.25;;;;;;;;;;5047214;28;20440;-80
2022/09/11 05:01:35;;;;;;;64.85;40.13;;;;;;;;;;5045534;28;20430;-82
2022/09/11 05:04:02;;;;;;;57.47;40.10;;;;;;;;;;5045328;28;20436;-80
2022/09/11 05:06:29;;;;;;;51.67;37.35;;;;;;;;;;5044631;28;20439;-82
2022/09/11 05:08:55;;;;;;;61.30;37.87;;;;;;;;;;5047437;28;20828;-80
2022/09/11 05:11:24;;;;;;;61.17;39.83;;;;;;;;;;5044352;28;20440;-82
2022/09/11 05:13:52;;;;;;;63.67;39.42;;;;;;;;;;5047437;28;20543;-81
2022/09/11 05:16:19;;;;;;;63.47;39.42;;;;;;;;;;5047228;28;20932;-82
2022/09/11 05:18:50;;;;;;;67.75;40.50;;;;;;;;;;5048608;28;20433;-80
2022/09/11 05:21:17;;;;;;;62.88;39.45;;;;;;;;;;5054101;28;20417;-82
2022/09/11 05:23:47;;;;;;;53.35;36.25;;;;;;;;;;5065341;28;20784;-81
2022/09/11 05:26:14;;;;;;;64.27;41.03;;;;;;;;;;5067729;28;21861;-81
2022/09/11 05:28:42;;;;;;;53.95;35.83;;;;;;;;;;5067823;28;20432;-81
2022/09/11 05:31:10;;;;;;;46.67;32.42;;;;;;;;;;5060639;28;21030;-81
2022/09/11 05:33:37;;;;;;;41.65;31.38;;;;;;;;;;5045645;28;20433;-81
2022/09/11 05:36:04;;;;;;;47.00;33.07;;;;;;;;;;5050193;28;20967;-81
2022/09/11 05:38:31;;;;;;;47.85;33.05;;;;;;;;;;5044644;28;20450;-81
2022/09/11 05:40:57;;;;;;;46.05;31.60;;;;;;;;;;5045121;28;20421;-80
2022/09/11 05:43:25;;;;;;;45.78;32.95;;;;;;;;;;5045113;28;20435;-80
2022/09/11 05:45:55;;;;;;;41.13;32.80;;;;;;;;;;5045668;28;20984;-81
2022/09/11 05:48:22;;;;;;;54.50;36.55;;;;;;;;;;5046377;28;20434;-80
2022/09/11 05:50:52;;;;;;;63.55;37.60;;;;;;;;;;5046905;28;20414;-81
2022/09/11 05:53:19;;;;;;;44.33;33.22;;;;;;;;;;5045982;28;20472;-80
2022/09/11 05:55:46;;;;;;;70.00;38.38;;;;;;;;;;5046912;28;20401;-80
2022/09/11 05:58:12;;;;;;;50.88;35.65;;;;;;;;;;5046000;28;20425;-81
2022/09/11 06:00:39;;;;;;;54.10;34.10;;;;;;;;;;5045080;28;20914;-80
2022/09/11 06:03:07;;;;;;;56.95;37.42;;;;;;;;;;5047140;28;20934;-80
2022/09/11 06:05:34;;;;;;;56.70;37.97;;;;;;;;;;5045750;28;20455;-80
2022/09/11 06:08:01;;;;;;;62.83;39.08;;;;;;;;;;5046414;28;20436;-80
2022/09/11 06:10:31;;;;;;;81.75;37.90;;;;;;;;;;5046160;28;20439;-81
2022/09/11 06:12:57;;;;;;;68.97;38.08;;;;;;;;;;5046234;28;20458;-81
2022/09/11 06:15:24;;;;;;;60.67;37.38;;;;;;;;;;5046235;28;20431;-86
2022/09/11 06:17:50;;;;;;;55.35;35.50;;;;;;;;;;5046159;28;20844;-81
2022/09/11 06:20:18;;;;;;;49.42;35.05;;;;;;;;;;5046134;28;21015;-80
2022/09/11 06:22:45;;;;;;;47.22;34.33;;;;;;;;;;5044637;28;20421;-81
2022/09/11 06:25:11;;;;;;;45.75;35.10;;;;;;;;;;5045291;28;20924;-81
2022/09/11 06:27:38;;;;;;;47.75;35.40;;;;;;;;;;5043997;28;20435;-82
2022/09/11 06:30:05;;;;;;;50.67;35.13;;;;;;;;;;5045708;28;20433;-82
2022/09/11 06:32:31;;;;;;;48.88;34.47;;;;;;;;;;5049952;28;20421;-82
2022/09/11 06:34:58;;;;;;;50.08;35.25;;;;;;;;;;5044606;28;20445;-82
2022/09/11 06:37:26;;;;;;;51.22;34.83;;;;;;;;;;5043724;28;20445;-80
2022/09/11 06:39:52;;;;;;;58.42;37.30;;;;;;;;;;5040768;28;20431;-82
2022/09/11 06:42:19;;;;;;;54.05;35.75;;;;;;;;;;5042354;28;20415;-81
2022/09/11 06:44:45;;;;;;;57.20;36.40;;;;;;;;;;5044826;28;20429;-82
2022/09/11 06:47:12;;;;;;;46.30;31.17;;;;;;;;;;5042936;28;20429;-81
2022/09/11 06:49:38;;;;;;;62.83;37.10;;;;;;;;;;5042432;28;20439;-82
2022/09/11 06:52:05;;;;;;;52.83;34.72;;;;;;;;;;5044849;28;20489;-82
2022/09/11 06:54:33;;;;;;;51.92;34.13;;;;;;;;;;5044744;28;20918;-81
2022/09/11 06:56:59;;;;;;;58.75;35.30;;;;;;;;;;5042513;28;20816;-81
2022/09/11 06:59:27;;;;;;;53.47;33.03;;;;;;;;;;5044465;28;20437;-82
2022/09/11 07:01:54;;;;;;;48.85;30.48;;;;;;;;;;5042303;28;20433;-83
2022/09/11 07:04:22;;;;;;;52.42;32.80;;;;;;;;;;5043715;28;20484;-80
2022/09/11 07:06:48;;;;;;;58.72;34.65;;;;;;;;;;5042387;28;20435;-82
2022/09/11 07:09:15;;;;;;;54.90;33.08;;;;;;;;;;5038653;28;20907;-80
2022/09/11 07:11:45;;;;;;;51.40;31.48;;;;;;;;;;5044992;28;20421;-82
2022/09/11 07:14:12;;;;;;;49.30;30.55;;;;;;;;;;5042899;28;21106;-81
2022/09/11 07:16:38;;;;;;;51.28;31.02;;;;;;;;;;5040895;28;20958;-81
2022/09/11 07:19:05;;;;;;;50.38;30.55;;;;;;;;;;5039733;28;20436;-82
2022/09/11 07:21:34;;;;;;;45.03;29.58;;;;;;;;;;5043667;28;20426;-82
2022/09/11 07:24:00;;;;;;;43.90;28.15;;;;;;;;;;5046117;28;20425;-83
2022/09/11 07:26:28;;;;;;;46.00;28.97;;;;;;;;;;5044397;28;20425;-84
2022/09/11 07:28:57;;;;;;;44.00;27.83;;;;;;;;;;5043656;28;20758;-80
2022/09/11 07:31:27;;;;;;;46.40;27.27;;;;;;;;;;5043073;28;20567;-80
2022/09/11 07:33:55;;;;;;;45.72;27.17;;;;;;;;;;5045208;28;20436;-81
2022/09/11 07:36:25;;;;;;;38.95;25.30;;;;;;;;;;5044768;28;20445;-82
2022/09/11 07:38:51;;;;;;;44.23;25.80;;;;;;;;;;5044963;28;20430;-82
2022/09/11 07:41:20;;;;;;;43.92;25.83;;;;;;;;;;5043284;28;20972;-82
2022/09/11 07:43:47;;;;;;;40.63;25.52;;;;;;;;;;5044226;28;21023;-82
2022/09/11 07:46:15;;;;;;;43.03;26.23;;;;;;;;;;5042496;28;20467;-81
2022/09/11 07:48:42;;;;;;;40.63;25.90;;;;;;;;;;5044349;28;20417;-81
2022/09/11 07:51:10;;;;;;;38.15;24.90;;;;;;;;;;5042372;28;20928;-82
2022/09/11 07:53:38;;;;;;;41.58;25.85;;;;;;;;;;5042594;28;20445;-81
2022/09/11 07:56:05;;;;;;;41.15;25.58;;;;;;;;;;5042534;28;20432;-82
2022/09/11 07:58:33;;;;;;;39.25;26.55;;;;;;;;;;5049769;28;20427;-81
2022/09/11 08:01:01;;;;;;;36.97;26.42;;;;;;;;;;5047473;28;20413;-83
2022/09/11 08:03:29;;;;;;;35.75;24.63;;;;;;;;;;5046524;28;20430;-81
2022/09/11 08:05:59;;;;;;;31.88;24.00;;;;;;;;;;5045576;28;20704;-83
2022/09/11 08:08:27;;;;;;;32.33;25.30;;;;;;;;;;5047793;28;20483;-81
2022/09/11 08:10:55;;;;;;;28.42;23.77;;;;;;;;;;5047874;28;20475;-81
2022/09/11 08:13:21;;;;;;;23.63;19.42;;;;;;;;;;5049736;28;20964;-82
2022/09/11 08:15:48;;;;;;;19.05;16.67;;;;;;;;;;5045814;28;20441;-82
2022/09/11 08:18:14;;;;;;;21.40;17.63;;;;;;;;;;5048358;28;20411;-82
2022/09/11 08:20:42;;;;;;;22.70;20.10;;;;;;;;;;5049264;28;20489;-84
2022/09/11 08:23:09;;;;;;;22.20;17.70;;;;;;;;;;5048622;28;20978;-79
2022/09/11 08:25:35;;;;;;;21.50;18.40;;;;;;;;;;5047855;28;20431;-81
2022/09/11 08:28:02;;;;;;;21.08;17.58;;;;;;;;;;5046635;28;20431;-82
2022/09/11 08:30:29;;;;;;;18.85;16.83;;;;;;;;;;5042683;28;20425;-82
2022/09/11 08:32:56;;;;;;;18.30;16.40;;;;;;;;;;5047819;28;20984;-82
2022/09/11 08:35:23;;;;;;;18.13;16.20;;;;;;;;;;5047058;28;20417;-82
2022/09/11 08:37:53;;;;;;;17.70;15.82;;;;;;;;;;5046412;28;20501;-82
2022/09/11 08:40:19;;;;;;;16.75;15.02;;;;;;;;;;5046965;28;20444;-81
2022/09/11 08:42:46;;;;;;;16.45;14.73;;;;;;;;;;5046892;28;20967;-84
2022/09/11 08:45:14;;;;;;;16.90;15.20;;;;;;;;;;5045091;28;20425;-81
2022/09/11 08:47:41;;;;;;;14.73;13.23;;;;;;;;;;5046886;28;20425;-83
2022/09/11 08:50:12;;;;;;;15.00;13.55;;;;;;;;;;5046130;28;20475;-82
2022/09/11 08:52:40;;;;;;;14.63;13.13;;;;;;;;;;5048068;28;20437;-82
2022/09/11 08:55:12;;;;;;;14.70;13.20;;;;;;;;;;5046561;28;20473;-82
2022/09/11 08:57:41;;;;;;;14.27;12.80;;;;;;;;;;5047273;28;20422;-82
2022/09/11 09:00:13;;;;;;;13.65;12.35;;;;;;;;;;5046964;28;20419;-81
2022/09/11 09:03:02;;;;;;;14.35;13.00;;;;;;;;;;5046465;28;20483;-81
2022/09/11 09:05:32;;;;;;;12.88;11.68;;;;;;;;;;5046259;28;20442;-82
2022/09/11 09:08:12;;;;;;;12.40;11.20;;;;;;;;;;5046527;28;20426;-83
2022/09/11 09:10:47;;;;;;;11.70;10.70;;;;;;;;;;5048519;28;20415;-80
2022/09/11 09:13:20;;;;;;;10.70;9.60;;;;;;;;;;5047820;28;20802;-82
2022/09/11 09:15:53;;;;;;;10.60;9.50;;;;;;;;;;5042794;28;20409;-82
2022/09/11 09:18:25;;;;;;;10.53;9.53;;;;;;;;;;5045584;28;21017;-81
2022/09/11 09:20:56;;;;;;;10.38;9.38;;;;;;;;;;5044032;28;20419;-81
2022/09/11 09:23:25;;;;;;;9.20;8.40;;;;;;;;;;5046715;28;20909;-82
2022/09/11 09:25:55;;;;;;;8.20;7.50;;;;;;;;;;5047238;28;20490;-83
2022/09/11 09:28:23;;;;;;;8.38;7.57;;;;;;;;;;5043260;28;20499;-82
2022/09/11 09:30:51;;;;;;;7.38;6.70;;;;;;;;;;5045269;28;20435;-82
2022/09/11 09:33:24;;;;;;;7.37;6.33;;;;;;;;;;5045719;28;20934;-82
2022/09/11 09:35:53;;;;;;;7.78;6.97;;;;;;;;;;5045564;28;20422;-81
2022/09/11 09:38:21;;;;;;;7.50;6.75;;;;;;;;;;5044642;28;20559;-82
2022/09/11 09:40:51;;;;;;;6.80;6.30;;;;;;;;;;5045186;28;20437;-80
2022/09/11 09:43:23;;;;;;;7.20;6.50;;;;;;;;;;5047509;28;20992;-80
2022/09/11 09:45:55;;;;;;;6.68;5.40;;;;;;;;;;5045124;28;20831;-82
2022/09/11 09:48:21;;;;;;;6.32;5.75;;;;;;;;;;5045300;28;20956;-81
2022/09/11 09:50:48;;;;;;;6.40;5.83;;;;;;;;;;5045050;28;20427;-83
2022/09/11 09:53:17;;;;;;;6.10;5.60;;;;;;;;;;5046717;28;20491;-81
2022/09/11 09:55:46;;;;;;;6.97;6.28;;;;;;;;;;5043559;28;20462;-81
2022/09/11 09:58:13;;;;;;;7.15;6.00;;;;;;;;;;5041458;28;20456;-82
2022/09/11 10:00:41;;;;;;;6.50;5.80;;;;;;;;;;5046028;28;20437;-82
2022/09/11 10:03:18;;;;;;;7.10;6.40;;;;;;;;;;5045628;28;20439;-82
2022/09/11 10:05:45;;;;;;;6.70;6.00;;;;;;;;;;5042715;28;20431;-83
2022/09/11 10:08:25;;;;;;;6.40;5.80;;;;;;;;;;5042937;28;20429;-81
2022/09/11 10:10:55;;;;;;;5.90;5.30;;;;;;;;;;5041273;28;20937;-83
2022/09/11 10:13:24;;;;;;;5.90;5.15;;;;;;;;;;5042595;28;20433;-83
2022/09/11 10:15:52;;;;;;;5.05;4.63;;;;;;;;;;5044810;28;20409;-81
2022/09/11 10:18:23;;;;;;;5.10;4.60;;;;;;;;;;5043583;28;20450;-82
2022/09/11 10:20:50;;;;;;;5.03;4.53;;;;;;;;;;5040022;28;20427;-81
2022/09/11 10:23:24;;;;;;;4.40;4.00;;;;;;;;;;5043713;28;20468;-81
2022/09/11 10:25:51;;;;;;;3.80;3.50;;;;;;;;;;5042700;28;20955;-81
2022/09/11 10:28:18;;;;;;;4.07;3.77;;;;;;;;;;5042439;28;20565;-81
2022/09/11 10:30:53;;;;;;;4.15;3.80;;;;;;;;;;5042504;28;20433;-83
2022/09/11 10:33:25;;;;;;;3.95;3.60;;;;;;;;;;5047167;28;20430;-82
2022/09/11 10:35:53;;;;;;;3.78;3.40;;;;;;;;;;5046606;28;20463;-84
2022/09/11 10:38:21;;;;;;;4.40;4.00;;;;;;;;;;5043207;28;20433;-83
2022/09/11 10:40:56;;;;;;;5.18;4.68;;;;;;;;;;5041914;28;20431;-85
2022/09/11 10:43:24;;;;;;;3.50;3.20;;;;;;;;;;5044192;28;20435;-82
2022/09/11 10:46:04;;;;;;;3.50;3.08;;;;;;;;;;5043105;28;21095;-83
2022/09/11 10:48:32;;;;;;;3.15;2.90;;;;;;;;;;5044988;28;20504;-81
2022/09/11 10:51:04;;;;;;;2.78;2.45;;;;;;;;;;5044096;28;20877;-81
2022/09/11 10:53:34;;;;;;;3.25;2.50;;;;;;;;;;5044264;28;20429;-81
2022/09/11 10:56:04;;;;;;;2.72;2.47;;;;;;;;;;5041039;28;20425;-81
2022/09/11 10:58:33;;;;;;;2.40;2.13;;;;;;;;;;5045939;28;20424;-83
2022/09/11 11:01:00;;;;;;;3.30;2.45;;;;;;;;;;5042168;28;20436;-81
2022/09/11 11:03:27;;;;;;;2.70;2.50;;;;;;;;;;5046020;28;20433;-82
2022/09/11 11:06:02;;;;;;;3.10;2.90;;;;;;;;;;5047356;28;20427;-83
2022/09/11 11:08:46;;;;;;;3.38;2.80;;;;;;;;;;5045462;28;20436;-82
2022/09/11 11:11:21;;;;;;;2.70;2.50;;;;;;;;;;5042450;28;20435;-81
2022/09/11 11:14:03;;;;;;;2.45;2.20;;;;;;;;;;5043978;28;20431;-82
2022/09/11 11:16:33;;;;;;;2.50;2.30;;;;;;;;;;5041310;28;20503;-81
2022/09/11 11:19:06;;;;;;;3.00;2.08;;;;;;;;;;5042676;28;20445;-81
2022/09/11 11:21:40;;;;;;;2.40;2.20;;;;;;;;;;5042558;28;20501;-81
2022/09/11 11:24:20;;;;;;;2.90;2.60;;;;;;;;;;5042165;28;20464;-81
2022/09/11 11:26:52;;;;;;;2.60;2.40;;;;;;;;;;5044681;28;20922;-80
2022/09/11 11:29:35;;;;;;;2.60;2.40;;;;;;;;;;5040805;28;21010;-81
2022/09/11 11:32:10;;;;;;;2.00;1.90;;;;;;;;;;5049343;28;20421;-82
2022/09/11 11:34:54;;;;;;;2.53;2.00;;;;;;;;;;5044408;28;20524;-81
2022/09/11 11:37:27;;;;;;;2.47;2.28;;;;;;;;;;5048120;28;20471;-80
2022/09/11 11:39:56;;;;;;;2.30;2.10;;;;;;;;;;5047950;28;20432;-81
2022/09/11 11:42:25;;;;;;;1.73;1.63;;;;;;;;;;5045886;28;20433;-82
2022/09/11 11:44:54;;;;;;;2.35;1.67;;;;;;;;;;5046653;28;20419;-81
2022/09/11 11:47:25;;;;;;;1.70;1.60;;;;;;;;;;5046409;28;20442;-81
2022/09/11 11:49:55;;;;;;;2.10;1.92;;;;;;;;;;5046783;28;20975;-80
2022/09/11 11:52:29;;;;;;;2.72;2.30;;;;;;;;;;5049088;28;20453;-82
2022/09/11 11:54:58;;;;;;;3.50;2.00;;;;;;;;;;5045707;28;20425;-81
2022/09/11 11:57:26;;;;;;;1.87;1.67;;;;;;;;;;5046836;28;20443;-83
2022/09/11 11:59:56;;;;;;;2.70;1.80;;;;;;;;;;5045970;28;20432;-82
2022/09/11 12:02:24;;;;;;;3.13;1.58;;;;;;;;;;5046782;28;20790;-83
2022/09/11 12:04:54;;;;;;;2.00;1.80;;;;;;;;;;5052824;28;20848;-79
2022/09/11 12:07:24;;;;;;;1.58;1.42;;;;;;;;;;5048086;28;20436;-84
2022/09/11 12:09:53;;;;;;;1.30;1.20;;;;;;;;;;5045656;28;20521;-80
2022/09/11 12:12:21;;;;;;;1.75;1.50;;;;;;;;;;5043451;28;20426;-81
2022/09/11 12:14:49;;;;;;;1.60;1.50;;;;;;;;;;5045887;28;20413;-81
2022/09/11 12:17:24;;;;;;;1.65;1.55;;;;;;;;;;5044914;28;20423;-82
2022/09/11 12:20:09;;;;;;;1.80;1.42;;;;;;;;;;5047257;28;20904;-80
2022/09/11 12:22:39;;;;;;;1.50;1.40;;;;;;;;;;5045836;28;20439;-81
2022/09/11 12:25:28;;;;;;;2.58;1.55;;;;;;;;;;5045709;28;20440;-81
2022/09/11 12:28:10;;;;;;;1.33;1.20;;;;;;;;;;5047298;28;20457;-81
2022/09/11 12:30:51;;;;;;;2.40;1.30;;;;;;;;;;5043971;28;20425;-82
2022/09/11 12:33:33;;;;;;;2.00;1.30;;;;;;;;;;5047888;28;20430;-82
2022/09/11 12:35:59;;;;;;;1.70;1.20;;;;;;;;;;5048791;28;20422;-81
2022/09/11 12:38:29;;;;;;;1.20;1.10;;;;;;;;;;5046675;28;20436;-82
2022/09/11 12:41:00;;;;;;;1.30;1.20;;;;;;;;;;5047521;28;20487;-82
2022/09/11 12:43:28;;;;;;;1.50;1.15;;;;;;;;;;5045744;28;20436;-80
2022/09/11 12:45:55;;;;;;;2.10;1.30;;;;;;;;;;5047737;28;20410;-81
2022/09/11 12:48:24;;;;;;;1.90;1.25;;;;;;;;;;5046557;28;20998;-82
2022/09/11 12:50:53;;;;;;;1.50;1.20;;;;;;;;;;5049182;28;20419;-82
2022/09/11 12:53:22;;;;;;;1.60;1.23;;;;;;;;;;5045930;28;20920;-82
2022/09/11 12:55:59;;;;;;;1.85;1.50;;;;;;;;;;5045866;28;20830;-83
2022/09/11 12:58:32;;;;;;;1.95;1.60;;;;;;;;;;5045666;28;20536;-82
2022/09/11 13:01:23;;;;;;;1.50;1.40;;;;;;;;;;5048034;28;20523;-81
2022/09/11 13:03:56;;;;;;;2.80;1.60;;;;;;;;;;5031478;28;20510;-80
2022/09/11 13:06:23;;;;;;;1.50;1.40;;;;;;;;;;5044949;28;20791;-80
2022/09/11 13:08:51;;;;;;;1.60;1.50;;;;;;;;;;5046429;28;20953;-80
2022/09/11 13:11:35;;;;;;;1.77;1.45;;;;;;;;;;5045797;28;20898;-80
2022/09/11 13:14:04;;;;;;;1.70;1.40;;;;;;;;;;5045452;28;20456;-81
2022/09/11 13:16:33;;;;;;;1.58;1.48;;;;;;;;;;5047005;28;20440;-81
2022/09/11 13:19:01;;;;;;;1.70;1.35;;;;;;;;;;5045257;28;20430;-83
2022/09/11 13:21:28;;;;;;;1.40;1.30;;;;;;;;;;5042878;28;20417;-83
2022/09/11 13:24:00;;;;;;;1.30;1.20;;;;;;;;;;5046287;28;20409;-80
2022/09/11 13:26:30;;;;;;;2.97;1.08;;;;;;;;;;5042391;28;20433;-81
2022/09/11 13:28:58;;;;;;;3.60;1.30;;;;;;;;;;5044825;28;20425;-81
2022/09/11 13:31:29;;;;;;;1.00;1.00;;;;;;;;;;5043700;28;20431;-81
2022/09/11 13:33:55;;;;;;;1.10;1.00;;;;;;;;;;5043801;28;20565;-81
2022/09/11 13:36:23;;;;;;;0.80;0.80;;;;;;;;;;5045382;28;20421;-82
2022/09/11 13:38:53;;;;;;;1.10;1.00;;;;;;;;;;5044609;28;20472;-82
2022/09/11 13:41:22;;;;;;;2.10;0.90;;;;;;;;;;5042976;28;20506;-82
2022/09/11 13:43:50;;;;;;;1.08;1.00;;;;;;;;;;5044209;28;21016;-83
2022/09/11 13:46:21;;;;;;;1.40;0.90;;;;;;;;;;5044568;28;20434;-82
2022/09/11 13:48:50;;;;;;;1.50;0.87;;;;;;;;;;5045804;28;20945;-82
2022/09/11 13:51:19;;;;;;;1.60;0.90;;;;;;;;;;5044137;28;20422;-81
2022/09/11 13:53:46;;;;;;;2.17;0.88;;;;;;;;;;5045138;28;20429;-83
2022/09/11 13:56:19;;;;;;;0.80;0.80;;;;;;;;;;5043352;28;20423;-81
2022/09/11 13:58:47;;;;;;;1.00;0.90;;;;;;;;;;5048210;28;20472;-81
2022/09/11 14:01:15;;;;;;;1.30;0.90;;;;;;;;;;5041960;28;20472;-81
2022/09/11 14:03:43;;;;;;;1.80;0.90;;;;;;;;;;5045502;28;20448;-81
2022/09/11 14:06:14;;;;;;;0.98;0.70;;;;;;;;;;5043462;28;20418;-81
2022/09/11 14:08:45;;;;;;;0.90;0.90;;;;;;;;;;5045526;28;20444;-81
2022/09/11 14:11:14;;;;;;;1.00;0.90;;;;;;;;;;5045113;28;20547;-82
2022/09/11 14:13:43;;;;;;;1.10;0.90;;;;;;;;;;5046283;28;20895;-81
2022/09/11 14:16:15;;;;;;;1.00;0.90;;;;;;;;;;5046331;28;20426;-82
2022/09/11 14:18:44;;;;;;;1.10;1.00;;;;;;;;;;5044745;28;20941;-80
2022/09/11 14:21:14;;;;;;;2.50;1.00;;;;;;;;;;5046663;28;21160;-80
2022/09/11 14:23:42;;;;;;;2.20;0.90;;;;;;;;;;5043872;28;20417;-82
2022/09/11 14:26:11;;;;;;;2.33;0.90;;;;;;;;;;5043382;28;20443;-81
2022/09/11 14:28:41;;;;;;;1.00;0.90;;;;;;;;;;5043006;28;20429;-81
2022/09/11 14:31:09;;;;;;;1.00;0.90;;;;;;;;;;5044267;28;20426;-81
2022/09/11 14:33:36;;;;;;;0.80;0.77;;;;;;;;;;5043826;28;20529;-82
2022/09/11 14:36:04;;;;;;;1.88;0.80;;;;;;;;;;5044700;28;20426;-83
2022/09/11 14:38:34;;;;;;;0.80;0.80;;;;;;;;;;5045686;28;20443;-82